M/V Wayne T Mosley — WDF2092 — position and weather

sailwx.info

Track history (hours):
 
Tides and Currents Weather Stations Pressure Air Temp Water Temp Dewpoint Dewpoint Depression Visibility Wind Speed Wind Dir Waves Ship Positions

M/V Wayne T Mosley

Owner: Blessey Enterprises Inc., Harahan, LA. More information available from US FCC via Universal Licensing System and Coast Guard Vessel Documentation Center.

Last reported at 2017-Sep-22 00:12 UTC. Time now 2017-Sep-24 19:26 UTC.
Position N 29°50' W 092°00'.

Length 25 m; draft 3 m.

Type: Towing. MMSI: 367424750.

Date/timePositionNaut miles runAvg speedWind from/ knotsBaromVisibWave heightAir tempDewpointWater temp
2017-Sep-22 00:12N 29°50' W 092°00'1 5.7
2017-Sep-21 23:57N 29°49' W 092°02'3 5.6
2017-Sep-21 23:30N 29°48' W 092°04'3 5.8
2017-Sep-21 23:00N 29°47' W 092°08'3 6.1
2017-Sep-21 22:30N 29°47' W 092°11'3 5.8
2017-Sep-21 22:00N 29°48' W 092°14'3 6.3
2017-Sep-21 21:31N 29°49' W 092°17'39 5.5
2017-Sep-21 14:26N 29°56' W 093°01'2 5.2
2017-Sep-21 14:01N 29°56' W 093°04'3 5.1
2017-Sep-21 13:30N 29°56' W 093°07'3 5.1
2017-Sep-21 13:00N 29°56' W 093°10'2 4.8
2017-Sep-21 12:30N 29°58' W 093°12'3 5.2
2017-Sep-21 12:00N 30°00' W 093°14'2 4.5
2017-Sep-21 11:30N 30°02' W 093°15'3 5.0
2017-Sep-21 11:01N 30°04' W 093°16'2 3.8
2017-Sep-21 10:31N 30°06' W 093°18'2 4.3
2017-Sep-21 10:00N 30°05' W 093°20'2 4.4
2017-Sep-21 09:31N 30°04' W 093°23'3 5.7
2017-Sep-21 09:01N 30°04' W 093°26'3 5.9
2017-Sep-21 08:30N 30°04' W 093°29'3 5.8
2017-Sep-21 08:00N 30°04' W 093°33'3 5.8
2017-Sep-21 07:30N 30°04' W 093°36'3 6.3
2017-Sep-21 06:59N 30°04' W 093°40'72 4.5
2017-Sep-20 15:12N 29°33' W 094°55'1 7.7
2017-Sep-20 15:00N 29°35' W 094°56'8 7.8
2017-Sep-20 14:00N 29°42' W 094°60'4 6.4
2017-Sep-20 13:26N 29°44' W 095°03'3 2.3
2017-Sep-20 12:08N 29°45' W 095°06'0 0.0
2017-Sep-20 11:47N 29°45' W 095°06'0 0.0
2017-Sep-20 11:28N 29°45' W 095°06'0 0.0
2017-Sep-20 11:00N 29°45' W 095°06'0 0.0
2017-Sep-20 10:28N 29°45' W 095°06'0 0.0
2017-Sep-20 09:46N 29°45' W 095°06'0 0.0
2017-Sep-20 09:29N 29°45' W 095°06'1 0.1
2017-Sep-19 18:03N 29°46' W 095°05'0 5.1
2017-Sep-19 17:59N 29°46' W 095°05'1 2.6
2017-Sep-19 17:26N 29°47' W 095°05'0 0.0
2017-Sep-19 16:53N 29°47' W 095°05'0 0.3
2017-Sep-19 16:08N 29°47' W 095°05'1 4.0
2017-Sep-19 15:48N 29°46' W 095°05'2 6.8
2017-Sep-19 15:31N 29°44' W 095°03'1 1.2
2017-Sep-19 15:00N 29°44' W 095°03'3 3.4
2017-Sep-19 14:05N 29°47' W 095°05'0 0.1
2017-Sep-19 14:00N 29°47' W 095°05'0 0.0
2017-Sep-19 13:30N 29°47' W 095°05'0 0.0
2017-Sep-19 13:00N 29°47' W 095°05'0 0.0
2017-Sep-19 12:30N 29°47' W 095°05'0 0.0
2017-Sep-19 12:01N 29°47' W 095°05'1 0.4
2017-Sep-19 10:24N 29°47' W 095°05'0 0.1
2017-Sep-19 10:00N 29°47' W 095°05'0 0.0
2017-Sep-19 09:29N 29°47' W 095°05'0 0.0
2017-Sep-19 09:00N 29°47' W 095°05'0 0.0
2017-Sep-19 08:22N 29°47' W 095°05'0 0.0
2017-Sep-19 08:00N 29°47' W 095°05'0 0.0
2017-Sep-19 07:30N 29°47' W 095°05'0 0.0
2017-Sep-19 07:00N 29°47' W 095°05'0 0.0
2017-Sep-19 06:29N 29°47' W 095°05'0 0.0
2017-Sep-19 05:59N 29°47' W 095°05'0 0.0
2017-Sep-19 05:24N 29°47' W 095°05'0 0.0
2017-Sep-19 05:00N 29°47' W 095°05'0 0.0
2017-Sep-19 04:28N 29°47' W 095°05'0 0.0
2017-Sep-19 03:55N 29°47' W 095°05'0 0.0
2017-Sep-19 03:21N 29°47' W 095°05'0 0.0
2017-Sep-19 02:55N 29°47' W 095°05'0 0.0
2017-Sep-19 02:30N 29°47' W 095°05'0 0.0
2017-Sep-19 01:57N 29°47' W 095°05'0 0.0
2017-Sep-19 01:30N 29°47' W 095°05'0 0.0
2017-Sep-19 00:45N 29°47' W 095°05'0 0.0
2017-Sep-19 00:31N 29°47' W 095°05'0 0.0
2017-Sep-19 00:00N 29°47' W 095°05'0 0.0
2017-Sep-18 23:24N 29°47' W 095°05'0 0.0
2017-Sep-18 23:00N 29°47' W 095°05'0 0.0
2017-Sep-18 22:24N 29°47' W 095°05'0 0.0
2017-Sep-18 22:00N 29°47' W 095°05'0 0.0
2017-Sep-18 21:26N 29°47' W 095°05'0 0.0
2017-Sep-18 20:58N 29°47' W 095°05'0 0.1
2017-Sep-18 19:37N 29°47' W 095°05'0 0.0
2017-Sep-18 19:19N 29°47' W 095°05'0 0.0
2017-Sep-18 19:00N 29°47' W 095°05'0 0.0
2017-Sep-18 18:30N 29°47' W 095°05'0 0.0
2017-Sep-18 18:00N 29°47' W 095°05'0 0.0
2017-Sep-18 17:30N 29°47' W 095°05'0 0.0
2017-Sep-18 16:51N 29°47' W 095°05'0 0.0
2017-Sep-18 16:30N 29°47' W 095°05'0 0.0
2017-Sep-18 15:57N 29°47' W 095°05'0 0.0
2017-Sep-18 15:29N 29°47' W 095°05'0 0.0
2017-Sep-18 14:49N 29°47' W 095°05'0 0.0
2017-Sep-18 14:30N 29°47' W 095°05'0 0.7
2017-Sep-18 13:55N 29°47' W 095°04'1 0.1
2017-Sep-18 08:05N 29°47' W 095°05'0 0.0
2017-Sep-18 07:59N 29°47' W 095°05'0 0.0
2017-Sep-18 07:13N 29°47' W 095°05'0 0.0
2017-Sep-18 06:57N 29°47' W 095°05'0 0.0
2017-Sep-18 06:22N 29°47' W 095°05'0 0.0
2017-Sep-18 05:56N 29°47' W 095°05'0 0.0
2017-Sep-18 05:07N 29°47' W 095°05'0 0.0
2017-Sep-18 04:44N 29°47' W 095°05'0 0.0
2017-Sep-18 04:27N 29°47' W 095°05'0 0.0
2017-Sep-17 20:57N 29°47' W 095°05'0 0.0
2017-Sep-17 20:30N 29°47' W 095°05'0 0.0
2017-Sep-17 19:54N 29°47' W 095°05'0 0.0
2017-Sep-17 17:52N 29°47' W 095°05'0 0.0
2017-Sep-17 17:30N 29°47' W 095°05'0 0.0
2017-Sep-17 16:54N 29°47' W 095°05'0 0.0
2017-Sep-17 16:26N 29°47' W 095°05'0 0.0
2017-Sep-17 15:55N 29°47' W 095°05'0 0.0
2017-Sep-17 15:27N 29°47' W 095°05'0 0.0
2017-Sep-16 18:49N 29°46' W 095°05'0 0.7
2017-Sep-16 18:29N 29°47' W 095°05'0 0.1
2017-Sep-16 17:50N 29°47' W 095°05'1 1.2
2017-Sep-16 17:09N 29°47' W 095°05'0 0.1
2017-Sep-16 17:00N 29°47' W 095°05'1 1.7
2017-Sep-16 16:30N 29°47' W 095°05'0 0.0
2017-Sep-16 16:00N 29°47' W 095°05'2 4.1
2017-Sep-16 15:30N 29°45' W 095°04'1 0.1
2017-Sep-15 22:47N 29°44' W 095°03'3 3.7
2017-Sep-15 22:06N 29°46' W 095°05'0 1.2
2017-Sep-15 21:58N 29°46' W 095°05'1 0.8
2017-Sep-15 21:21N 29°47' W 095°05'0 0.0
2017-Sep-15 20:29N 29°47' W 095°05'1 0.3
2017-Sep-15 18:03N 29°47' W 095°05'0 2.3
2017-Sep-15 18:00N 29°47' W 095°05'1 1.2
2017-Sep-15 17:30N 29°47' W 095°05'1 1.5
2017-Sep-15 16:54N 29°46' W 095°05'2 5.4
2017-Sep-15 16:29N 29°44' W 095°03'2 3.1
2017-Sep-15 15:57N 29°44' W 095°01'0 0.0
2017-Sep-15 15:26N 29°44' W 095°01'0 0.0
2017-Sep-15 15:00N 29°44' W 095°01'0 0.0
2017-Sep-15 14:30N 29°44' W 095°01'0 0.0
2017-Sep-15 14:00N 29°44' W 095°01'0 0.0
2017-Sep-15 13:29N 29°44' W 095°01'0 0.0
2017-Sep-15 13:00N 29°44' W 095°01'0 0.0
2017-Sep-15 12:30N 29°44' W 095°01'0 0.0
2017-Sep-15 12:00N 29°44' W 095°01'0 0.0
2017-Sep-15 11:27N 29°44' W 095°01'0 0.0
2017-Sep-15 11:00N 29°44' W 095°01'0 0.0
2017-Sep-14 23:56N 29°44' W 095°01'0 0.0
2017-Sep-14 23:25N 29°44' W 095°01'0 0.0
2017-Sep-14 14:37N 29°44' W 095°01'0 0.0
2017-Sep-14 14:27N 29°44' W 095°01'0 0.2
2017-Sep-14 13:54N 29°44' W 095°01'0 0.0
2017-Sep-14 13:30N 29°44' W 095°01'0 0.0
2017-Sep-14 13:00N 29°44' W 095°01'0 0.0
2017-Sep-14 12:28N 29°44' W 095°01'0 0.0
2017-Sep-14 12:00N 29°44' W 095°01'0 0.0
2017-Sep-14 11:26N 29°44' W 095°01'0 0.0
2017-Sep-14 11:00N 29°44' W 095°01'0 0.0
2017-Sep-14 10:24N 29°44' W 095°01'0 0.0
2017-Sep-14 09:54N 29°44' W 095°01'0 0.0
2017-Sep-14 09:28N 29°44' W 095°01'0 0.0
2017-Sep-14 09:00N 29°44' W 095°01'0 0.0
2017-Sep-14 08:29N 29°44' W 095°01'0 0.0
2017-Sep-14 07:59N 29°44' W 095°01'0 0.0
2017-Sep-14 07:26N 29°44' W 095°01'0 0.0
2017-Sep-14 06:56N 29°44' W 095°01'0 0.0
2017-Sep-14 06:30N 29°44' W 095°01'0 0.0
2017-Sep-14 05:57N 29°44' W 095°01'0 0.0
2017-Sep-14 05:26N 29°44' W 095°01'0 0.0
2017-Sep-14 04:59N 29°44' W 095°01'0 0.0
2017-Sep-14 04:29N 29°44' W 095°01'0 0.0
2017-Sep-14 03:55N 29°44' W 095°01'0 0.0
2017-Sep-14 03:20N 29°44' W 095°01'0 0.0
2017-Sep-14 02:53N 29°44' W 095°01'0 0.0
2017-Sep-14 02:29N 29°44' W 095°01'0 0.0
2017-Sep-14 01:58N 29°44' W 095°01'0 0.0
2017-Sep-14 01:30N 29°44' W 095°01'0 0.0
2017-Sep-14 00:49N 29°44' W 095°01'0 0.0
2017-Sep-14 00:19N 29°44' W 095°01'0 0.0
2017-Sep-13 23:47N 29°44' W 095°01'0 0.0
2017-Sep-13 23:30N 29°44' W 095°01'0 0.0
2017-Sep-13 22:59N 29°44' W 095°01'0 0.0
2017-Sep-13 22:23N 29°44' W 095°01'0 0.0
2017-Sep-13 18:21N 29°44' W 095°01'2 2.8
2017-Sep-13 17:49N 29°44' W 095°03'3 6.0
2017-Sep-13 17:23N 29°46' W 095°05'0 0.1
2017-Sep-13 13:06N 29°46' W 095°05'0 0.6
2017-Sep-13 12:56N 29°47' W 095°05'1 1.6
2017-Sep-13 12:24N 29°47' W 095°05'1 0.2
2017-Sep-13 07:40N 29°46' W 095°05'0 0.0
2017-Sep-13 07:30N 29°46' W 095°05'0 0.0
2017-Sep-13 04:47N 29°46' W 095°05'0 0.2
2017-Sep-13 04:29N 29°46' W 095°05'  
Track history (hours):
 
Tides and Currents Weather Stations Pressure Air Temp Water Temp Dewpoint Dewpoint Depression Visibility Wind Speed Wind Dir Waves Ship Positions

M/V Wayne T Mosley

Owner: Blessey Enterprises Inc., Harahan, LA. More information available from US FCC via Universal Licensing System and Coast Guard Vessel Documentation Center.

Last reported at 2017-Sep-22 00:12 UTC. Time now 2017-Sep-24 19:26 UTC.
Position N 29°50' W 092°00'.

Length 25 m; draft 3 m.

Type: Towing. MMSI: 367424750.

Date/timePositionNaut miles runAvg speedWind from/ knotsBaromVisibWave heightAir tempDewpointWater temp
2017-Sep-22 00:12N 29°50' W 092°00'1 5.7
2017-Sep-21 23:57N 29°49' W 092°02'3 5.6
2017-Sep-21 23:30N 29°48' W 092°04'3 5.8
2017-Sep-21 23:00N 29°47' W 092°08'3 6.1
2017-Sep-21 22:30N 29°47' W 092°11'3 5.8
2017-Sep-21 22:00N 29°48' W 092°14'3 6.3
2017-Sep-21 21:31N 29°49' W 092°17'39 5.5
2017-Sep-21 14:26N 29°56' W 093°01'2 5.2
2017-Sep-21 14:01N 29°56' W 093°04'3 5.1
2017-Sep-21 13:30N 29°56' W 093°07'3 5.1
2017-Sep-21 13:00N 29°56' W 093°10'2 4.8
2017-Sep-21 12:30N 29°58' W 093°12'3 5.2
2017-Sep-21 12:00N 30°00' W 093°14'2 4.5
2017-Sep-21 11:30N 30°02' W 093°15'3 5.0
2017-Sep-21 11:01N 30°04' W 093°16'2 3.8
2017-Sep-21 10:31N 30°06' W 093°18'2 4.3
2017-Sep-21 10:00N 30°05' W 093°20'2 4.4
2017-Sep-21 09:31N 30°04' W 093°23'3 5.7
2017-Sep-21 09:01N 30°04' W 093°26'3 5.9
2017-Sep-21 08:30N 30°04' W 093°29'3 5.8
2017-Sep-21 08:00N 30°04' W 093°33'3 5.8
2017-Sep-21 07:30N 30°04' W 093°36'3 6.3
2017-Sep-21 06:59N 30°04' W 093°40'72 4.5
2017-Sep-20 15:12N 29°33' W 094°55'1 7.7
2017-Sep-20 15:00N 29°35' W 094°56'8 7.8
2017-Sep-20 14:00N 29°42' W 094°60'4 6.4
2017-Sep-20 13:26N 29°44' W 095°03'3 2.3
2017-Sep-20 12:08N 29°45' W 095°06'0 0.0
2017-Sep-20 11:47N 29°45' W 095°06'0 0.0
2017-Sep-20 11:28N 29°45' W 095°06'0 0.0
2017-Sep-20 11:00N 29°45' W 095°06'0 0.0
2017-Sep-20 10:28N 29°45' W 095°06'0 0.0
2017-Sep-20 09:46N 29°45' W 095°06'0 0.0
2017-Sep-20 09:29N 29°45' W 095°06'1 0.1
2017-Sep-19 18:03N 29°46' W 095°05'0 5.1
2017-Sep-19 17:59N 29°46' W 095°05'1 2.6
2017-Sep-19 17:26N 29°47' W 095°05'0 0.0
2017-Sep-19 16:53N 29°47' W 095°05'0 0.3
2017-Sep-19 16:08N 29°47' W 095°05'1 4.0
2017-Sep-19 15:48N 29°46' W 095°05'2 6.8
2017-Sep-19 15:31N 29°44' W 095°03'1 1.2
2017-Sep-19 15:00N 29°44' W 095°03'3 3.4
2017-Sep-19 14:05N 29°47' W 095°05'0 0.1
2017-Sep-19 14:00N 29°47' W 095°05'0 0.0
2017-Sep-19 13:30N 29°47' W 095°05'0 0.0
2017-Sep-19 13:00N 29°47' W 095°05'0 0.0
2017-Sep-19 12:30N 29°47' W 095°05'0 0.0
2017-Sep-19 12:01N 29°47' W 095°05'1 0.4
2017-Sep-19 10:24N 29°47' W 095°05'0 0.1
2017-Sep-19 10:00N 29°47' W 095°05'0 0.0
2017-Sep-19 09:29N 29°47' W 095°05'0 0.0
2017-Sep-19 09:00N 29°47' W 095°05'0 0.0
2017-Sep-19 08:22N 29°47' W 095°05'0 0.0
2017-Sep-19 08:00N 29°47' W 095°05'0 0.0
2017-Sep-19 07:30N 29°47' W 095°05'0 0.0
2017-Sep-19 07:00N 29°47' W 095°05'0 0.0
2017-Sep-19 06:29N 29°47' W 095°05'0 0.0
2017-Sep-19 05:59N 29°47' W 095°05'0 0.0
2017-Sep-19 05:24N 29°47' W 095°05'0 0.0
2017-Sep-19 05:00N 29°47' W 095°05'0 0.0
2017-Sep-19 04:28N 29°47' W 095°05'0 0.0
2017-Sep-19 03:55N 29°47' W 095°05'0 0.0
2017-Sep-19 03:21N 29°47' W 095°05'0 0.0
2017-Sep-19 02:55N 29°47' W 095°05'0 0.0
2017-Sep-19 02:30N 29°47' W 095°05'0 0.0
2017-Sep-19 01:57N 29°47' W 095°05'0 0.0
2017-Sep-19 01:30N 29°47' W 095°05'0 0.0
2017-Sep-19 00:45N 29°47' W 095°05'0 0.0
2017-Sep-19 00:31N 29°47' W 095°05'0 0.0
2017-Sep-19 00:00N 29°47' W 095°05'0 0.0
2017-Sep-18 23:24N 29°47' W 095°05'0 0.0
2017-Sep-18 23:00N 29°47' W 095°05'0 0.0
2017-Sep-18 22:24N 29°47' W 095°05'0 0.0
2017-Sep-18 22:00N 29°47' W 095°05'0 0.0
2017-Sep-18 21:26N 29°47' W 095°05'0 0.0
2017-Sep-18 20:58N 29°47' W 095°05'0 0.1
2017-Sep-18 19:37N 29°47' W 095°05'0 0.0
2017-Sep-18 19:19N 29°47' W 095°05'0 0.0
2017-Sep-18 19:00N 29°47' W 095°05'0 0.0
2017-Sep-18 18:30N 29°47' W 095°05'0 0.0
2017-Sep-18 18:00N 29°47' W 095°05'0 0.0
2017-Sep-18 17:30N 29°47' W 095°05'0 0.0
2017-Sep-18 16:51N 29°47' W 095°05'0 0.0
2017-Sep-18 16:30N 29°47' W 095°05'0 0.0
2017-Sep-18 15:57N 29°47' W 095°05'0 0.0
2017-Sep-18 15:29N 29°47' W 095°05'0 0.0
2017-Sep-18 14:49N 29°47' W 095°05'0 0.0
2017-Sep-18 14:30N 29°47' W 095°05'0 0.7
2017-Sep-18 13:55N 29°47' W 095°04'1 0.1
2017-Sep-18 08:05N 29°47' W 095°05'0 0.0
2017-Sep-18 07:59N 29°47' W 095°05'0 0.0
2017-Sep-18 07:13N 29°47' W 095°05'0 0.0
2017-Sep-18 06:57N 29°47' W 095°05'0 0.0
2017-Sep-18 06:22N 29°47' W 095°05'0 0.0
2017-Sep-18 05:56N 29°47' W 095°05'0 0.0
2017-Sep-18 05:07N 29°47' W 095°05'0 0.0
2017-Sep-18 04:44N 29°47' W 095°05'0 0.0
2017-Sep-18 04:27N 29°47' W 095°05'0 0.0
2017-Sep-17 20:57N 29°47' W 095°05'0 0.0
2017-Sep-17 20:30N 29°47' W 095°05'0 0.0
2017-Sep-17 19:54N 29°47' W 095°05'0 0.0
2017-Sep-17 17:52N 29°47' W 095°05'0 0.0
2017-Sep-17 17:30N 29°47' W 095°05'0 0.0
2017-Sep-17 16:54N 29°47' W 095°05'0 0.0
2017-Sep-17 16:26N 29°47' W 095°05'0 0.0
2017-Sep-17 15:55N 29°47' W 095°05'0 0.0
2017-Sep-17 15:27N 29°47' W 095°05'0 0.0
2017-Sep-16 18:49N 29°46' W 095°05'0 0.7
2017-Sep-16 18:29N 29°47' W 095°05'0 0.1
2017-Sep-16 17:50N 29°47' W 095°05'1 1.2
2017-Sep-16 17:09N 29°47' W 095°05'0 0.1
2017-Sep-16 17:00N 29°47' W 095°05'1 1.7
2017-Sep-16 16:30N 29°47' W 095°05'0 0.0
2017-Sep-16 16:00N 29°47' W 095°05'2 4.1
2017-Sep-16 15:30N 29°45' W 095°04'1 0.1
2017-Sep-15 22:47N 29°44' W 095°03'3 3.7
2017-Sep-15 22:06N 29°46' W 095°05'0 1.2
2017-Sep-15 21:58N 29°46' W 095°05'1 0.8
2017-Sep-15 21:21N 29°47' W 095°05'0 0.0
2017-Sep-15 20:29N 29°47' W 095°05'1 0.3
2017-Sep-15 18:03N 29°47' W 095°05'0 2.3
2017-Sep-15 18:00N 29°47' W 095°05'1 1.2
2017-Sep-15 17:30N 29°47' W 095°05'1 1.5
2017-Sep-15 16:54N 29°46' W 095°05'2 5.4
2017-Sep-15 16:29N 29°44' W 095°03'2 3.1
2017-Sep-15 15:57N 29°44' W 095°01'0 0.0
2017-Sep-15 15:26N 29°44' W 095°01'0 0.0
2017-Sep-15 15:00N 29°44' W 095°01'0 0.0
2017-Sep-15 14:30N 29°44' W 095°01'0 0.0
2017-Sep-15 14:00N 29°44' W 095°01'0 0.0
2017-Sep-15 13:29N 29°44' W 095°01'0 0.0
2017-Sep-15 13:00N 29°44' W 095°01'0 0.0
2017-Sep-15 12:30N 29°44' W 095°01'0 0.0
2017-Sep-15 12:00N 29°44' W 095°01'0 0.0
2017-Sep-15 11:27N 29°44' W 095°01'0 0.0
2017-Sep-15 11:00N 29°44' W 095°01'0 0.0
2017-Sep-14 23:56N 29°44' W 095°01'0 0.0
2017-Sep-14 23:25N 29°44' W 095°01'0 0.0
2017-Sep-14 14:37N 29°44' W 095°01'0 0.0
2017-Sep-14 14:27N 29°44' W 095°01'0 0.2
2017-Sep-14 13:54N 29°44' W 095°01'0 0.0
2017-Sep-14 13:30N 29°44' W 095°01'0 0.0
2017-Sep-14 13:00N 29°44' W 095°01'0 0.0
2017-Sep-14 12:28N 29°44' W 095°01'0 0.0
2017-Sep-14 12:00N 29°44' W 095°01'0 0.0
2017-Sep-14 11:26N 29°44' W 095°01'0 0.0
2017-Sep-14 11:00N 29°44' W 095°01'0 0.0
2017-Sep-14 10:24N 29°44' W 095°01'0 0.0
2017-Sep-14 09:54N 29°44' W 095°01'0 0.0
2017-Sep-14 09:28N 29°44' W 095°01'0 0.0
2017-Sep-14 09:00N 29°44' W 095°01'0 0.0
2017-Sep-14 08:29N 29°44' W 095°01'0 0.0
2017-Sep-14 07:59N 29°44' W 095°01'0 0.0
2017-Sep-14 07:26N 29°44' W 095°01'0 0.0
2017-Sep-14 06:56N 29°44' W 095°01'0 0.0
2017-Sep-14 06:30N 29°44' W 095°01'0 0.0
2017-Sep-14 05:57N 29°44' W 095°01'0 0.0
2017-Sep-14 05:26N 29°44' W 095°01'0 0.0
2017-Sep-14 04:59N 29°44' W 095°01'0 0.0
2017-Sep-14 04:29N 29°44' W 095°01'0 0.0
2017-Sep-14 03:55N 29°44' W 095°01'0 0.0
2017-Sep-14 03:20N 29°44' W 095°01'0 0.0
2017-Sep-14 02:53N 29°44' W 095°01'0 0.0
2017-Sep-14 02:29N 29°44' W 095°01'0 0.0
2017-Sep-14 01:58N 29°44' W 095°01'0 0.0
2017-Sep-14 01:30N 29°44' W 095°01'0 0.0
2017-Sep-14 00:49N 29°44' W 095°01'0 0.0
2017-Sep-14 00:19N 29°44' W 095°01'0 0.0
2017-Sep-13 23:47N 29°44' W 095°01'0 0.0
2017-Sep-13 23:30N 29°44' W 095°01'0 0.0
2017-Sep-13 22:59N 29°44' W 095°01'0 0.0
2017-Sep-13 22:23N 29°44' W 095°01'0 0.0
2017-Sep-13 18:21N 29°44' W 095°01'2 2.8
2017-Sep-13 17:49N 29°44' W 095°03'3 6.0
2017-Sep-13 17:23N 29°46' W 095°05'0 0.1
2017-Sep-13 13:06N 29°46' W 095°05'0 0.6
2017-Sep-13 12:56N 29°47' W 095°05'1 1.6
2017-Sep-13 12:24N 29°47' W 095°05'1 0.2
2017-Sep-13 07:40N 29°46' W 095°05'0 0.0
2017-Sep-13 07:30N 29°46' W 095°05'0 0.0
2017-Sep-13 04:47N 29°46' W 095°05'0 0.2
2017-Sep-13 04:29N 29°46' W 095°05'  

Dump ship's entire track history